sensor_id;sensor_type;location;lat;lon;timestamp;temperature;humidity
13052;DHT22;6592;47.484;9.726;2022-12-29T00:01:09;6.70;99.90
13052;DHT22;6592;47.484;9.726;2022-12-29T00:03:39;6.60;99.90
13052;DHT22;6592;47.484;9.726;2022-12-29T00:06:08;6.60;99.90
13052;DHT22;6592;47.484;9.726;2022-12-29T00:08:36;6.50;99.90
13052;DHT22;6592;47.484;9.726;2022-12-29T00:11:09;6.40;99.90
13052;DHT22;6592;47.484;9.726;2022-12-29T00:13:38;6.30;99.90
13052;DHT22;6592;47.484;9.726;2022-12-29T00:16:24;6.20;99.90
13052;DHT22;6592;47.484;9.726;2022-12-29T00:18:55;6.10;99.90
13052;DHT22;6592;47.484;9.726;2022-12-29T00:21:24;6.00;99.90
13052;DHT22;6592;47.484;9.726;2022-12-29T00:24:12;6.00;99.90
13052;DHT22;6592;47.484;9.726;2022-12-29T00:27:09;5.90;99.90
13052;DHT22;6592;47.484;9.726;2022-12-29T00:29:55;5.60;99.90
13052;DHT22;6592;47.484;9.726;2022-12-29T00:32:42;5.60;99.90
13052;DHT22;6592;47.484;9.726;2022-12-29T00:35:30;5.60;99.90
13052;DHT22;6592;47.484;9.726;2022-12-29T00:38:03;5.60;99.90
13052;DHT22;6592;47.484;9.726;2022-12-29T00:40:45;5.70;99.90
13052;DHT22;6592;47.484;9.726;2022-12-29T00:43:31;5.70;99.90
13052;DHT22;6592;47.484;9.726;2022-12-29T00:46:16;5.70;99.90
13052;DHT22;6592;47.484;9.726;2022-12-29T00:48:46;5.70;99.90
13052;DHT22;6592;47.484;9.726;2022-12-29T00:51:33;5.70;99.90
13052;DHT22;6592;47.484;9.726;2022-12-29T00:54:02;5.60;99.90
13052;DHT22;6592;47.484;9.726;2022-12-29T00:56:30;5.60;99.90
13052;DHT22;6592;47.484;9.726;2022-12-29T00:59:00;5.60;99.90
13052;DHT22;6592;47.484;9.726;2022-12-29T01:01:29;5.40;99.90
13052;DHT22;6592;47.484;9.726;2022-12-29T01:03:58;5.30;99.90
13052;DHT22;6592;47.484;9.726;2022-12-29T01:06:30;5.20;99.90
13052;DHT22;6592;47.484;9.726;2022-12-29T01:09:00;5.30;99.90
13052;DHT22;6592;47.484;9.726;2022-12-29T01:11:46;5.20;99.90
13052;DHT22;6592;47.484;9.726;2022-12-29T01:14:15;5.10;99.90
13052;DHT22;6592;47.484;9.726;2022-12-29T01:16:44;5.10;99.90
13052;DHT22;6592;47.484;9.726;2022-12-29T01:19:13;5.10;99.90
13052;DHT22;6592;47.484;9.726;2022-12-29T01:21:44;5.10;99.90
13052;DHT22;6592;47.484;9.726;2022-12-29T01:24:14;5.10;99.90
13052;DHT22;6592;47.484;9.726;2022-12-29T01:26:44;5.20;99.90
13052;DHT22;6592;47.484;9.726;2022-12-29T01:29:13;5.20;99.90
13052;DHT22;6592;47.484;9.726;2022-12-29T01:31:41;5.10;99.90
13052;DHT22;6592;47.484;9.726;2022-12-29T01:34:10;5.10;99.90
13052;DHT22;6592;47.484;9.726;2022-12-29T01:36:38;5.00;99.90
13052;DHT22;6592;47.484;9.726;2022-12-29T01:39:06;4.90;99.90
13052;DHT22;6592;47.484;9.726;2022-12-29T01:41:36;4.90;99.90
13052;DHT22;6592;47.484;9.726;2022-12-29T01:44:39;4.90;99.90
13052;DHT22;6592;47.484;9.726;2022-12-29T01:47:10;4.90;99.90
13052;DHT22;6592;47.484;9.726;2022-12-29T01:49:40;4.80;99.90
13052;DHT22;6592;47.484;9.726;2022-12-29T01:52:08;4.80;99.90
13052;DHT22;6592;47.484;9.726;2022-12-29T01:54:38;4.80;99.90
13052;DHT22;6592;47.484;9.726;2022-12-29T01:57:14;4.80;99.90
13052;DHT22;6592;47.484;9.726;2022-12-29T01:59:50;4.80;99.90
13052;DHT22;6592;47.484;9.726;2022-12-29T02:02:20;4.80;99.90
13052;DHT22;6592;47.484;9.726;2022-12-29T02:04:50;4.80;99.90
13052;DHT22;6592;47.484;9.726;2022-12-29T02:07:22;4.80;99.90
13052;DHT22;6592;47.484;9.726;2022-12-29T02:09:53;4.80;99.90
13052;DHT22;6592;47.484;9.726;2022-12-29T02:12:24;4.90;99.90
13052;DHT22;6592;47.484;9.726;2022-12-29T02:14:56;4.90;99.90
13052;DHT22;6592;47.484;9.726;2022-12-29T02:17:41;4.90;99.90
13052;DHT22;6592;47.484;9.726;2022-12-29T02:20:37;5.10;99.90
13052;DHT22;6592;47.484;9.726;2022-12-29T02:23:36;5.00;99.90
13052;DHT22;6592;47.484;9.726;2022-12-29T02:26:29;5.00;99.90
13052;DHT22;6592;47.484;9.726;2022-12-29T02:29:26;5.00;99.90
13052;DHT22;6592;47.484;9.726;2022-12-29T02:32:03;5.00;99.90
13052;DHT22;6592;47.484;9.726;2022-12-29T02:34:40;5.10;99.90
13052;DHT22;6592;47.484;9.726;2022-12-29T02:37:22;5.10;99.90
13052;DHT22;6592;47.484;9.726;2022-12-29T02:39:59;5.10;99.90
13052;DHT22;6592;47.484;9.726;2022-12-29T02:42:35;5.20;99.90
13052;DHT22;6592;47.484;9.726;2022-12-29T02:45:07;5.20;99.90
13052;DHT22;6592;47.484;9.726;2022-12-29T02:47:46;5.30;99.90
13052;DHT22;6592;47.484;9.726;2022-12-29T02:50:23;5.30;99.90
13052;DHT22;6592;47.484;9.726;2022-12-29T02:52:57;5.30;99.90
13052;DHT22;6592;47.484;9.726;2022-12-29T02:55:26;5.40;99.90
13052;DHT22;6592;47.484;9.726;2022-12-29T02:58:15;5.30;99.90
13052;DHT22;6592;47.484;9.726;2022-12-29T03:00:55;5.30;99.90
13052;DHT22;6592;47.484;9.726;2022-12-29T03:03:36;5.40;99.90
13052;DHT22;6592;47.484;9.726;2022-12-29T03:06:21;5.40;99.90
13052;DHT22;6592;47.484;9.726;2022-12-29T03:08:57;5.40;99.90
13052;DHT22;6592;47.484;9.726;2022-12-29T03:11:33;5.50;99.90
13052;DHT22;6592;47.484;9.726;2022-12-29T03:14:27;5.60;99.90
13052;DHT22;6592;47.484;9.726;2022-12-29T03:17:22;5.60;99.90
13052;DHT22;6592;47.484;9.726;2022-12-29T03:20:01;5.70;99.90
13052;DHT22;6592;47.484;9.726;2022-12-29T03:22:32;5.80;99.90
13052;DHT22;6592;47.484;9.726;2022-12-29T03:25:05;6.00;99.90
13052;DHT22;6592;47.484;9.726;2022-12-29T03:27:37;6.00;99.90
13052;DHT22;6592;47.484;9.726;2022-12-29T03:30:08;6.00;99.90
13052;DHT22;6592;47.484;9.726;2022-12-29T03:32:40;5.90;99.90
13052;DHT22;6592;47.484;9.726;2022-12-29T03:35:14;5.80;99.90
13052;DHT22;6592;47.484;9.726;2022-12-29T03:37:48;5.80;99.90
13052;DHT22;6592;47.484;9.726;2022-12-29T03:40:18;5.80;99.90
13052;DHT22;6592;47.484;9.726;2022-12-29T03:42:48;5.60;99.90
13052;DHT22;6592;47.484;9.726;2022-12-29T03:45:17;5.60;99.90
13052;DHT22;6592;47.484;9.726;2022-12-29T03:47:46;5.70;99.90
13052;DHT22;6592;47.484;9.726;2022-12-29T03:50:16;5.80;99.90
13052;DHT22;6592;47.484;9.726;2022-12-29T03:52:45;6.00;99.90
13052;DHT22;6592;47.484;9.726;2022-12-29T03:55:13;6.10;99.90
13052;DHT22;6592;47.484;9.726;2022-12-29T03:57:42;6.20;99.90
13052;DHT22;6592;47.484;9.726;2022-12-29T04:00:11;6.20;99.90
13052;DHT22;6592;47.484;9.726;2022-12-29T04:02:40;6.30;99.90
13052;DHT22;6592;47.484;9.726;2022-12-29T04:05:09;6.20;99.90
13052;DHT22;6592;47.484;9.726;2022-12-29T04:07:38;6.10;99.90
13052;DHT22;6592;47.484;9.726;2022-12-29T04:10:08;6.00;99.90
13052;DHT22;6592;47.484;9.726;2022-12-29T04:12:36;6.00;99.90
13052;DHT22;6592;47.484;9.726;2022-12-29T04:15:06;6.00;99.90
13052;DHT22;6592;47.484;9.726;2022-12-29T04:17:34;6.00;99.90
13052;DHT22;6592;47.484;9.726;2022-12-29T04:20:03;5.90;99.90
13052;DHT22;6592;47.484;9.726;2022-12-29T04:22:58;5.90;99.90
13052;DHT22;6592;47.484;9.726;2022-12-29T04:25:27;5.90;99.90
13052;DHT22;6592;47.484;9.726;2022-12-29T04:27:55;5.90;99.90
13052;DHT22;6592;47.484;9.726;2022-12-29T04:30:24;5.90;99.90
13052;DHT22;6592;47.484;9.726;2022-12-29T04:32:52;5.90;99.90
13052;DHT22;6592;47.484;9.726;2022-12-29T04:35:21;5.90;99.90
13052;DHT22;6592;47.484;9.726;2022-12-29T04:37:51;5.90;99.90
13052;DHT22;6592;47.484;9.726;2022-12-29T04:40:19;5.90;99.90
13052;DHT22;6592;47.484;9.726;2022-12-29T04:42:48;6.00;99.90
13052;DHT22;6592;47.484;9.726;2022-12-29T04:45:16;6.10;99.90
13052;DHT22;6592;47.484;9.726;2022-12-29T04:47:44;6.10;99.90
13052;DHT22;6592;47.484;9.726;2022-12-29T04:50:13;6.10;99.90
13052;DHT22;6592;47.484;9.726;2022-12-29T04:52:41;6.20;99.90
13052;DHT22;6592;47.484;9.726;2022-12-29T04:55:11;6.20;99.90
13052;DHT22;6592;47.484;9.726;2022-12-29T04:57:40;6.20;99.90
13052;DHT22;6592;47.484;9.726;2022-12-29T05:00:10;6.30;99.90
13052;DHT22;6592;47.484;9.726;2022-12-29T05:02:39;6.30;99.90
13052;DHT22;6592;47.484;9.726;2022-12-29T05:05:08;6.40;99.90
13052;DHT22;6592;47.484;9.726;2022-12-29T05:07:36;6.30;99.90
13052;DHT22;6592;47.484;9.726;2022-12-29T05:10:06;6.40;99.90
13052;DHT22;6592;47.484;9.726;2022-12-29T05:12:37;6.50;99.90
13052;DHT22;6592;47.484;9.726;2022-12-29T05:15:07;6.60;99.90
13052;DHT22;6592;47.484;9.726;2022-12-29T05:17:36;6.80;99.90
13052;DHT22;6592;47.484;9.726;2022-12-29T05:20:06;6.90;99.90
13052;DHT22;6592;47.484;9.726;2022-12-29T05:22:35;7.00;99.90
13052;DHT22;6592;47.484;9.726;2022-12-29T05:25:04;7.00;99.90
13052;DHT22;6592;47.484;9.726;2022-12-29T05:27:32;7.00;99.90
13052;DHT22;6592;47.484;9.726;2022-12-29T05:30:03;7.00;99.90
13052;DHT22;6592;47.484;9.726;2022-12-29T05:32:31;7.00;99.90
13052;DHT22;6592;47.484;9.726;2022-12-29T05:34:59;7.20;99.90
13052;DHT22;6592;47.484;9.726;2022-12-29T05:37:28;7.10;99.90
13052;DHT22;6592;47.484;9.726;2022-12-29T05:39:57;7.20;99.90
13052;DHT22;6592;47.484;9.726;2022-12-29T05:42:26;7.20;99.90
13052;DHT22;6592;47.484;9.726;2022-12-29T05:44:54;7.20;99.90
13052;DHT22;6592;47.484;9.726;2022-12-29T05:47:24;7.10;99.90
13052;DHT22;6592;47.484;9.726;2022-12-29T05:49:53;7.00;99.90
13052;DHT22;6592;47.484;9.726;2022-12-29T05:52:21;6.90;99.90
13052;DHT22;6592;47.484;9.726;2022-12-29T05:54:50;6.80;99.90
13052;DHT22;6592;47.484;9.726;2022-12-29T05:57:19;6.60;99.90
13052;DHT22;6592;47.484;9.726;2022-12-29T05:59:47;6.50;99.90
13052;DHT22;6592;47.484;9.726;2022-12-29T06:02:16;6.50;99.90
13052;DHT22;6592;47.484;9.726;2022-12-29T06:04:46;6.40;99.90
13052;DHT22;6592;47.484;9.726;2022-12-29T06:07:14;6.30;99.90
13052;DHT22;6592;47.484;9.726;2022-12-29T06:09:43;6.30;99.90
13052;DHT22;6592;47.484;9.726;2022-12-29T06:12:12;6.30;99.90
13052;DHT22;6592;47.484;9.726;2022-12-29T06:14:41;6.30;99.90
13052;DHT22;6592;47.484;9.726;2022-12-29T06:17:09;6.30;99.90
13052;DHT22;6592;47.484;9.726;2022-12-29T06:19:38;6.20;99.90
13052;DHT22;6592;47.484;9.726;2022-12-29T06:22:07;6.20;99.90
13052;DHT22;6592;47.484;9.726;2022-12-29T06:24:39;6.10;99.90
13052;DHT22;6592;47.484;9.726;2022-12-29T06:27:07;6.10;99.90
13052;DHT22;6592;47.484;9.726;2022-12-29T06:29:36;6.20;99.90
13052;DHT22;6592;47.484;9.726;2022-12-29T06:32:07;6.20;99.90
13052;DHT22;6592;47.484;9.726;2022-12-29T06:34:36;6.20;99.90
13052;DHT22;6592;47.484;9.726;2022-12-29T06:37:04;6.20;99.90
13052;DHT22;6592;47.484;9.726;2022-12-29T06:39:34;6.20;99.90
13052;DHT22;6592;47.484;9.726;2022-12-29T06:42:03;6.20;99.90
13052;DHT22;6592;47.484;9.726;2022-12-29T06:44:32;6.00;99.90
13052;DHT22;6592;47.484;9.726;2022-12-29T06:47:00;6.00;99.90
13052;DHT22;6592;47.484;9.726;2022-12-29T06:49:29;5.90;99.90
13052;DHT22;6592;47.484;9.726;2022-12-29T06:51:57;5.90;99.90
13052;DHT22;6592;47.484;9.726;2022-12-29T06:54:27;5.80;99.90
13052;DHT22;6592;47.484;9.726;2022-12-29T06:56:57;5.70;99.90
13052;DHT22;6592;47.484;9.726;2022-12-29T06:59:25;5.60;99.90
13052;DHT22;6592;47.484;9.726;2022-12-29T07:01:54;5.60;99.90
13052;DHT22;6592;47.484;9.726;2022-12-29T07:04:23;5.60;99.90
13052;DHT22;6592;47.484;9.726;2022-12-29T07:06:52;5.60;99.90
13052;DHT22;6592;47.484;9.726;2022-12-29T07:09:20;5.50;99.90
13052;DHT22;6592;47.484;9.726;2022-12-29T07:11:49;5.60;99.90
13052;DHT22;6592;47.484;9.726;2022-12-29T07:14:19;5.60;99.90
13052;DHT22;6592;47.484;9.726;2022-12-29T07:16:47;5.70;99.90
13052;DHT22;6592;47.484;9.726;2022-12-29T07:19:16;5.70;99.90
13052;DHT22;6592;47.484;9.726;2022-12-29T07:21:44;5.60;99.90
13052;DHT22;6592;47.484;9.726;2022-12-29T07:24:12;5.70;99.90
13052;DHT22;6592;47.484;9.726;2022-12-29T07:26:41;5.60;99.90
13052;DHT22;6592;47.484;9.726;2022-12-29T07:29:09;5.70;99.90
13052;DHT22;6592;47.484;9.726;2022-12-29T07:31:39;5.70;99.90
13052;DHT22;6592;47.484;9.726;2022-12-29T07:34:08;5.80;99.90
13052;DHT22;6592;47.484;9.726;2022-12-29T07:36:36;5.90;99.90
13052;DHT22;6592;47.484;9.726;2022-12-29T07:39:05;5.90;99.90
13052;DHT22;6592;47.484;9.726;2022-12-29T07:41:33;6.00;99.90
13052;DHT22;6592;47.484;9.726;2022-12-29T07:44:01;6.00;99.90
13052;DHT22;6592;47.484;9.726;2022-12-29T07:46:30;6.00;99.90
13052;DHT22;6592;47.484;9.726;2022-12-29T07:49:20;6.10;99.90
13052;DHT22;6592;47.484;9.726;2022-12-29T07:51:48;6.30;99.90
13052;DHT22;6592;47.484;9.726;2022-12-29T07:54:16;6.40;99.90
13052;DHT22;6592;47.484;9.726;2022-12-29T07:56:46;6.50;99.90
13052;DHT22;6592;47.484;9.726;2022-12-29T07:59:14;6.60;99.90
13052;DHT22;6592;47.484;9.726;2022-12-29T08:01:42;6.70;99.90
13052;DHT22;6592;47.484;9.726;2022-12-29T08:04:11;6.80;99.90
13052;DHT22;6592;47.484;9.726;2022-12-29T08:06:41;6.80;99.90
13052;DHT22;6592;47.484;9.726;2022-12-29T08:09:09;6.90;99.90
13052;DHT22;6592;47.484;9.726;2022-12-29T08:11:45;6.90;99.90
13052;DHT22;6592;47.484;9.726;2022-12-29T08:14:13;6.90;99.90
13052;DHT22;6592;47.484;9.726;2022-12-29T08:16:42;7.00;99.90
13052;DHT22;6592;47.484;9.726;2022-12-29T08:19:10;7.10;99.90
13052;DHT22;6592;47.484;9.726;2022-12-29T08:21:41;7.20;99.90
13052;DHT22;6592;47.484;9.726;2022-12-29T08:24:09;7.40;99.90
13052;DHT22;6592;47.484;9.726;2022-12-29T08:26:38;7.60;99.90
13052;DHT22;6592;47.484;9.726;2022-12-29T08:29:06;7.70;99.90
13052;DHT22;6592;47.484;9.726;2022-12-29T08:31:35;7.90;99.90
13052;DHT22;6592;47.484;9.726;2022-12-29T08:34:03;8.00;99.90
13052;DHT22;6592;47.484;9.726;2022-12-29T08:36:32;8.10;99.90
13052;DHT22;6592;47.484;9.726;2022-12-29T08:39:02;8.10;99.90
13052;DHT22;6592;47.484;9.726;2022-12-29T08:41:30;8.20;99.90
13052;DHT22;6592;47.484;9.726;2022-12-29T08:43:59;8.30;99.90
13052;DHT22;6592;47.484;9.726;2022-12-29T08:46:28;8.30;99.90
13052;DHT22;6592;47.484;9.726;2022-12-29T08:48:57;8.20;99.90
13052;DHT22;6592;47.484;9.726;2022-12-29T08:51:25;8.30;99.90
13052;DHT22;6592;47.484;9.726;2022-12-29T08:53:53;8.40;99.90
13052;DHT22;6592;47.484;9.726;2022-12-29T08:56:23;8.40;99.90
13052;DHT22;6592;47.484;9.726;2022-12-29T08:58:52;8.40;99.90
13052;DHT22;6592;47.484;9.726;2022-12-29T09:01:22;8.40;99.90
13052;DHT22;6592;47.484;9.726;2022-12-29T09:03:50;8.50;99.90
13052;DHT22;6592;47.484;9.726;2022-12-29T09:06:39;8.50;99.90
13052;DHT22;6592;47.484;9.726;2022-12-29T09:09:07;8.60;99.90
13052;DHT22;6592;47.484;9.726;2022-12-29T09:11:37;8.60;99.90
13052;DHT22;6592;47.484;9.726;2022-12-29T09:14:06;8.70;99.90
13052;DHT22;6592;47.484;9.726;2022-12-29T09:16:34;8.50;99.90
13052;DHT22;6592;47.484;9.726;2022-12-29T09:19:03;8.40;99.90
13052;DHT22;6592;47.484;9.726;2022-12-29T09:21:32;8.30;99.90
13052;DHT22;6592;47.484;9.726;2022-12-29T09:24:00;8.30;99.90
13052;DHT22;6592;47.484;9.726;2022-12-29T09:26:28;8.40;99.90
13052;DHT22;6592;47.484;9.726;2022-12-29T09:28:58;8.70;99.90
13052;DHT22;6592;47.484;9.726;2022-12-29T09:31:26;8.90;99.90
13052;DHT22;6592;47.484;9.726;2022-12-29T09:33:55;9.00;99.90
13052;DHT22;6592;47.484;9.726;2022-12-29T09:36:23;9.10;99.90
13052;DHT22;6592;47.484;9.726;2022-12-29T09:38:53;9.20;99.90
13052;DHT22;6592;47.484;9.726;2022-12-29T09:41:26;9.30;99.90
13052;DHT22;6592;47.484;9.726;2022-12-29T09:44:06;9.40;99.90
13052;DHT22;6592;47.484;9.726;2022-12-29T09:46:40;9.50;99.90
13052;DHT22;6592;47.484;9.726;2022-12-29T09:49:18;9.50;99.90
13052;DHT22;6592;47.484;9.726;2022-12-29T09:51:52;9.50;99.90
13052;DHT22;6592;47.484;9.726;2022-12-29T09:54:29;9.40;99.90
13052;DHT22;6592;47.484;9.726;2022-12-29T09:57:00;9.30;99.90
13052;DHT22;6592;47.484;9.726;2022-12-29T09:59:38;9.20;99.90
13052;DHT22;6592;47.484;9.726;2022-12-29T10:02:18;9.30;99.90
13052;DHT22;6592;47.484;9.726;2022-12-29T10:04:50;9.40;99.90
13052;DHT22;6592;47.484;9.726;2022-12-29T10:07:30;9.60;99.90
13052;DHT22;6592;47.484;9.726;2022-12-29T10:10:07;10.10;99.90
13052;DHT22;6592;47.484;9.726;2022-12-29T10:12:52;10.80;99.90
13052;DHT22;6592;47.484;9.726;2022-12-29T10:15:33;11.70;99.90
13052;DHT22;6592;47.484;9.726;2022-12-29T10:18:17;13.30;99.90
13052;DHT22;6592;47.484;9.726;2022-12-29T10:20:51;13.80;99.90
13052;DHT22;6592;47.484;9.726;2022-12-29T10:23:26;13.90;99.90
13052;DHT22;6592;47.484;9.726;2022-12-29T10:25:56;14.40;99.90
13052;DHT22;6592;47.484;9.726;2022-12-29T10:28:34;14.80;99.90
13052;DHT22;6592;47.484;9.726;2022-12-29T10:31:09;15.10;99.30
13052;DHT22;6592;47.484;9.726;2022-12-29T10:33:41;15.00;97.30
13052;DHT22;6592;47.484;9.726;2022-12-29T10:36:16;14.70;97.70
13052;DHT22;6592;47.484;9.726;2022-12-29T10:38:50;14.60;96.90
13052;DHT22;6592;47.484;9.726;2022-12-29T10:41:23;14.20;97.20
13052;DHT22;6592;47.484;9.726;2022-12-29T10:43:54;14.00;96.20
13052;DHT22;6592;47.484;9.726;2022-12-29T10:46:27;13.80;97.20
13052;DHT22;6592;47.484;9.726;2022-12-29T10:48:57;14.00;96.10
13052;DHT22;6592;47.484;9.726;2022-12-29T10:51:30;15.10;96.00
13052;DHT22;6592;47.484;9.726;2022-12-29T10:54:04;16.50;92.20
13052;DHT22;6592;47.484;9.726;2022-12-29T10:56:35;16.90;90.40
13052;DHT22;6592;47.484;9.726;2022-12-29T10:59:12;17.50;90.50
13052;DHT22;6592;47.484;9.726;2022-12-29T11:01:53;18.40;85.00
13052;DHT22;6592;47.484;9.726;2022-12-29T11:04:34;18.60;80.20
13052;DHT22;6592;47.484;9.726;2022-12-29T11:07:03;17.70;81.00
13052;DHT22;6592;47.484;9.726;2022-12-29T11:09:40;16.80;83.00
13052;DHT22;6592;47.484;9.726;2022-12-29T11:12:20;16.10;84.00
13052;DHT22;6592;47.484;9.726;2022-12-29T11:15:02;15.40;85.20
13052;DHT22;6592;47.484;9.726;2022-12-29T11:17:43;14.90;88.10
13052;DHT22;6592;47.484;9.726;2022-12-29T11:20:30;14.30;89.50
13052;DHT22;6592;47.484;9.726;2022-12-29T11:22:59;14.10;90.00
13052;DHT22;6592;47.484;9.726;2022-12-29T11:25:28;14.00;90.60
13052;DHT22;6592;47.484;9.726;2022-12-29T11:27:58;14.00;90.50
13052;DHT22;6592;47.484;9.726;2022-12-29T11:30:29;14.00;90.50
13052;DHT22;6592;47.484;9.726;2022-12-29T11:33:02;14.10;90.30
13052;DHT22;6592;47.484;9.726;2022-12-29T11:35:34;14.20;90.70
13052;DHT22;6592;47.484;9.726;2022-12-29T11:38:04;15.00;90.20
13052;DHT22;6592;47.484;9.726;2022-12-29T11:40:38;15.90;89.00
13052;DHT22;6592;47.484;9.726;2022-12-29T11:43:20;16.40;85.90
13052;DHT22;6592;47.484;9.726;2022-12-29T11:45:52;16.80;85.50
13052;DHT22;6592;47.484;9.726;2022-12-29T11:48:28;16.80;84.40
13052;DHT22;6592;47.484;9.726;2022-12-29T11:50:58;16.60;85.00
13052;DHT22;6592;47.484;9.726;2022-12-29T11:53:32;16.10;83.80
13052;DHT22;6592;47.484;9.726;2022-12-29T11:56:08;15.60;86.30
13052;DHT22;6592;47.484;9.726;2022-12-29T11:58:37;15.30;85.80
13052;DHT22;6592;47.484;9.726;2022-12-29T12:01:11;15.10;86.70
13052;DHT22;6592;47.484;9.726;2022-12-29T12:03:47;14.90;88.10
13052;DHT22;6592;47.484;9.726;2022-12-29T12:06:19;14.70;90.10
13052;DHT22;6592;47.484;9.726;2022-12-29T12:08:54;14.60;89.60
13052;DHT22;6592;47.484;9.726;2022-12-29T12:11:26;14.40;88.40
13052;DHT22;6592;47.484;9.726;2022-12-29T12:14:04;14.30;90.20
13052;DHT22;6592;47.484;9.726;2022-12-29T12:16:37;14.20;89.50
13052;DHT22;6592;47.484;9.726;2022-12-29T12:19:15;14.00;87.90
13052;DHT22;6592;47.484;9.726;2022-12-29T12:21:53;13.90;87.30
13052;DHT22;6592;47.484;9.726;2022-12-29T12:24:39;13.90;87.10
13052;DHT22;6592;47.484;9.726;2022-12-29T12:27:13;13.80;85.70
13052;DHT22;6592;47.484;9.726;2022-12-29T12:29:50;13.80;86.90
13052;DHT22;6592;47.484;9.726;2022-12-29T12:32:24;13.70;86.80
13052;DHT22;6592;47.484;9.726;2022-12-29T12:34:56;13.80;88.80
13052;DHT22;6592;47.484;9.726;2022-12-29T12:37:38;14.10;90.60
13052;DHT22;6592;47.484;9.726;2022-12-29T12:40:32;14.30;90.90
13052;DHT22;6592;47.484;9.726;2022-12-29T12:43:18;14.50;91.80
13052;DHT22;6592;47.484;9.726;2022-12-29T12:45:59;14.30;91.00
13052;DHT22;6592;47.484;9.726;2022-12-29T12:48:57;14.30;91.60
13052;DHT22;6592;47.484;9.726;2022-12-29T12:51:35;14.20;91.20
13052;DHT22;6592;47.484;9.726;2022-12-29T12:54:18;14.10;91.30
13052;DHT22;6592;47.484;9.726;2022-12-29T12:56:57;14.00;92.20
13052;DHT22;6592;47.484;9.726;2022-12-29T12:59:41;13.90;92.00
13052;DHT22;6592;47.484;9.726;2022-12-29T13:02:27;13.80;91.10
13052;DHT22;6592;47.484;9.726;2022-12-29T13:05:24;13.70;91.30
13052;DHT22;6592;47.484;9.726;2022-12-29T13:08:13;13.60;91.60
13052;DHT22;6592;47.484;9.726;2022-12-29T13:10:51;13.60;91.30
13052;DHT22;6592;47.484;9.726;2022-12-29T13:13:57;13.60;91.80
13052;DHT22;6592;47.484;9.726;2022-12-29T13:16:34;13.70;91.50
13052;DHT22;6592;47.484;9.726;2022-12-29T13:19:12;13.70;91.10
13052;DHT22;6592;47.484;9.726;2022-12-29T13:21:55;13.70;90.50
13052;DHT22;6592;47.484;9.726;2022-12-29T13:24:40;13.70;89.20
13052;DHT22;6592;47.484;9.726;2022-12-29T13:27:17;13.70;89.70
13052;DHT22;6592;47.484;9.726;2022-12-29T13:29:55;13.80;90.20
13052;DHT22;6592;47.484;9.726;2022-12-29T13:32:39;13.80;89.10
13052;DHT22;6592;47.484;9.726;2022-12-29T13:35:21;13.80;88.20
13052;DHT22;6592;47.484;9.726;2022-12-29T13:37:59;13.80;88.70
13052;DHT22;6592;47.484;9.726;2022-12-29T13:40:35;13.90;90.30
13052;DHT22;6592;47.484;9.726;2022-12-29T13:43:06;13.90;89.80
13052;DHT22;6592;47.484;9.726;2022-12-29T13:45:35;13.90;91.30
13052;DHT22;6592;47.484;9.726;2022-12-29T13:48:09;13.80;91.90
13052;DHT22;6592;47.484;9.726;2022-12-29T13:50:41;13.80;92.20
13052;DHT22;6592;47.484;9.726;2022-12-29T13:53:23;13.80;92.70
13052;DHT22;6592;47.484;9.726;2022-12-29T13:55:58;13.80;93.00
13052;DHT22;6592;47.484;9.726;2022-12-29T13:58:37;13.80;94.20
13052;DHT22;6592;47.484;9.726;2022-12-29T14:01:10;13.70;94.40
13052;DHT22;6592;47.484;9.726;2022-12-29T14:03:47;13.70;93.80
13052;DHT22;6592;47.484;9.726;2022-12-29T14:06:21;13.60;94.50
13052;DHT22;6592;47.484;9.726;2022-12-29T14:08:53;13.50;95.30
13052;DHT22;6592;47.484;9.726;2022-12-29T14:11:30;13.50;95.70
13052;DHT22;6592;47.484;9.726;2022-12-29T14:13:59;13.40;96.60
13052;DHT22;6592;47.484;9.726;2022-12-29T14:16:38;13.30;97.10
13052;DHT22;6592;47.484;9.726;2022-12-29T14:19:15;13.10;97.70
13052;DHT22;6592;47.484;9.726;2022-12-29T14:21:52;12.90;98.10
13052;DHT22;6592;47.484;9.726;2022-12-29T14:24:44;12.90;98.20
13052;DHT22;6592;47.484;9.726;2022-12-29T14:31:01;12.90;99.90
13052;DHT22;6592;47.484;9.726;2022-12-29T14:33:31;12.80;99.90
13052;DHT22;6592;47.484;9.726;2022-12-29T14:36:18;12.70;99.90
13052;DHT22;6592;47.484;9.726;2022-12-29T14:38:48;12.60;99.90
13052;DHT22;6592;47.484;9.726;2022-12-29T14:41:24;12.50;99.90
13052;DHT22;6592;47.484;9.726;2022-12-29T14:44:00;12.30;99.90
13052;DHT22;6592;47.484;9.726;2022-12-29T14:46:56;12.20;99.90
13052;DHT22;6592;47.484;9.726;2022-12-29T14:49:28;12.10;99.90
13052;DHT22;6592;47.484;9.726;2022-12-29T14:52:04;12.10;99.90
13052;DHT22;6592;47.484;9.726;2022-12-29T14:55:00;12.00;99.90
13052;DHT22;6592;47.484;9.726;2022-12-29T14:57:50;12.00;99.90
13052;DHT22;6592;47.484;9.726;2022-12-29T15:00:22;11.90;99.90
13052;DHT22;6592;47.484;9.726;2022-12-29T15:03:02;11.80;99.90
13052;DHT22;6592;47.484;9.726;2022-12-29T15:05:40;11.80;99.90
13052;DHT22;6592;47.484;9.726;2022-12-29T15:08:11;11.70;99.90
13052;DHT22;6592;47.484;9.726;2022-12-29T15:10:44;11.70;99.90
13052;DHT22;6592;47.484;9.726;2022-12-29T15:13:17;11.60;99.90
13052;DHT22;6592;47.484;9.726;2022-12-29T15:15:46;11.60;99.90
13052;DHT22;6592;47.484;9.726;2022-12-29T15:18:23;11.60;99.90
13052;DHT22;6592;47.484;9.726;2022-12-29T15:20:54;11.60;99.90
13052;DHT22;6592;47.484;9.726;2022-12-29T15:23:24;11.50;99.90
13052;DHT22;6592;47.484;9.726;2022-12-29T15:25:55;11.50;99.90
13052;DHT22;6592;47.484;9.726;2022-12-29T15:28:24;11.40;99.90
13052;DHT22;6592;47.484;9.726;2022-12-29T15:30:54;11.40;99.90
13052;DHT22;6592;47.484;9.726;2022-12-29T15:33:27;11.30;99.90
13052;DHT22;6592;47.484;9.726;2022-12-29T15:36:01;11.20;99.90
13052;DHT22;6592;47.484;9.726;2022-12-29T15:38:30;11.20;99.90
13052;DHT22;6592;47.484;9.726;2022-12-29T15:41:13;11.20;99.90
13052;DHT22;6592;47.484;9.726;2022-12-29T15:43:52;11.00;99.90
13052;DHT22;6592;47.484;9.726;2022-12-29T15:46:22;10.80;99.90
13052;DHT22;6592;47.484;9.726;2022-12-29T15:48:52;10.70;99.90
13052;DHT22;6592;47.484;9.726;2022-12-29T15:51:27;10.60;99.90
13052;DHT22;6592;47.484;9.726;2022-12-29T15:53:57;10.50;99.90
13052;DHT22;6592;47.484;9.726;2022-12-29T15:56:30;10.50;99.90
13052;DHT22;6592;47.484;9.726;2022-12-29T15:58:59;10.40;99.90
13052;DHT22;6592;47.484;9.726;2022-12-29T16:01:30;10.30;99.90
13052;DHT22;6592;47.484;9.726;2022-12-29T16:04:03;10.30;99.90
13052;DHT22;6592;47.484;9.726;2022-12-29T16:06:33;10.20;99.90
13052;DHT22;6592;47.484;9.726;2022-12-29T16:09:04;10.10;99.90
13052;DHT22;6592;47.484;9.726;2022-12-29T16:11:35;10.10;99.90
13052;DHT22;6592;47.484;9.726;2022-12-29T16:14:08;10.00;99.90
13052;DHT22;6592;47.484;9.726;2022-12-29T16:16:39;9.90;99.90
13052;DHT22;6592;47.484;9.726;2022-12-29T16:19:13;9.80;99.90
13052;DHT22;6592;47.484;9.726;2022-12-29T16:21:42;9.80;99.90
13052;DHT22;6592;47.484;9.726;2022-12-29T16:24:14;9.70;99.90
13052;DHT22;6592;47.484;9.726;2022-12-29T16:26:48;9.70;99.90
13052;DHT22;6592;47.484;9.726;2022-12-29T16:29:19;9.80;99.90
13052;DHT22;6592;47.484;9.726;2022-12-29T16:31:52;9.60;99.90
13052;DHT22;6592;47.484;9.726;2022-12-29T16:34:31;9.60;99.90
13052;DHT22;6592;47.484;9.726;2022-12-29T16:37:01;9.50;99.90
13052;DHT22;6592;47.484;9.726;2022-12-29T16:39:36;9.50;99.90
13052;DHT22;6592;47.484;9.726;2022-12-29T16:42:34;9.40;99.90